createdAt,value
2018-05-21T00:02:02.345Z,49.93
2018-05-21T00:04:29.825Z,49.42
2018-05-21T00:06:57.351Z,49.83
2018-05-21T00:09:25.798Z,50.12
2018-05-21T00:11:53.312Z,50.19
2018-05-21T00:14:20.809Z,50.53
2018-05-21T00:16:48.482Z,50.19
2018-05-21T00:19:15.916Z,50.34
2018-05-21T00:21:43.408Z,50.37
2018-05-21T00:24:10.934Z,50.05
2018-05-21T00:26:38.429Z,49.86
2018-05-21T00:29:05.963Z,50.25
2018-05-21T00:31:34.059Z,50.67
2018-05-21T00:34:01.530Z,51.10
2018-05-21T00:36:29.034Z,51.00
2018-05-21T00:38:56.510Z,51.45
2018-05-21T00:41:24.168Z,50.64
2018-05-21T00:43:51.663Z,51.14
2018-05-21T00:46:19.185Z,51.35
2018-05-21T00:48:46.667Z,51.06
2018-05-21T00:51:14.170Z,51.08
2018-05-21T00:53:41.677Z,51.26
2018-05-21T00:56:09.158Z,52.02
2018-05-21T00:58:36.673Z,51.79
2018-05-21T01:01:04.144Z,51.95
2018-05-21T01:03:31.664Z,51.67
2018-05-21T01:05:59.157Z,51.20
2018-05-21T01:08:26.679Z,51.65
2018-05-21T01:10:54.289Z,52.16
2018-05-21T01:13:21.788Z,51.65
2018-05-21T01:15:49.300Z,52.41
2018-05-21T01:18:16.783Z,52.82
2018-05-21T01:20:44.332Z,52.32
2018-05-21T01:23:11.898Z,52.78
2018-05-21T01:25:39.379Z,53.34
2018-05-21T01:28:06.887Z,53.15
2018-05-21T01:30:34.412Z,52.94
2018-05-21T01:33:01.907Z,53.38
2018-05-21T01:35:29.399Z,53.47
2018-05-21T01:37:56.904Z,53.68
2018-05-21T01:40:24.441Z,53.61
2018-05-21T01:42:51.943Z,53.20
2018-05-21T01:45:19.433Z,53.45
2018-05-21T01:47:46.917Z,53.61
2018-05-21T01:50:14.444Z,53.92
2018-05-21T01:52:41.916Z,53.65
2018-05-21T01:55:09.416Z,53.75
2018-05-21T01:57:36.888Z,53.94
2018-05-21T02:00:04.499Z,54.46
2018-05-21T02:02:31.969Z,54.63
2018-05-21T02:04:59.470Z,54.82
2018-05-21T02:07:26.975Z,54.46
2018-05-21T02:09:54.492Z,55.34
2018-05-21T02:12:21.979Z,54.26
2018-05-21T02:14:49.471Z,54.26
2018-05-21T02:17:16.985Z,54.63
2018-05-21T02:19:44.579Z,54.13
2018-05-21T02:22:12.084Z,54.66
2018-05-21T02:24:39.573Z,55.06
2018-05-21T02:27:07.174Z,55.32
2018-05-21T02:29:34.631Z,54.48
2018-05-21T02:32:02.161Z,54.86
2018-05-21T02:34:29.686Z,54.41
2018-05-21T02:36:57.167Z,54.98
2018-05-21T02:39:24.688Z,54.44
2018-05-21T02:41:52.169Z,54.49
2018-05-21T02:44:19.670Z,54.68
2018-05-21T02:46:47.136Z,54.95
2018-05-21T02:49:14.619Z,55.15
2018-05-21T02:51:42.161Z,54.49
2018-05-21T02:54:09.656Z,55.06
2018-05-21T02:56:37.137Z,55.00
2018-05-21T02:59:04.625Z,55.99
2018-05-21T03:01:32.240Z,56.66
2018-05-21T03:03:59.730Z,55.77
2018-05-21T03:06:27.212Z,55.66
2018-05-21T03:08:54.725Z,56.00
2018-05-21T03:11:22.236Z,56.24
2018-05-21T03:13:49.718Z,56.06
2018-05-21T03:16:17.231Z,56.46
2018-05-21T03:18:44.797Z,55.52
2018-05-21T03:21:12.274Z,56.61
2018-05-21T03:23:39.813Z,56.44
2018-05-21T03:26:07.314Z,56.61
2018-05-21T03:28:34.784Z,55.85
2018-05-21T03:31:02.303Z,56.16
2018-05-21T03:33:29.786Z,56.80
2018-05-21T03:35:57.260Z,57.03
2018-05-21T03:38:24.757Z,57.68
2018-05-21T03:40:52.366Z,56.86
2018-05-21T03:43:19.870Z,57.01
2018-05-21T03:45:47.367Z,58.00
2018-05-21T03:48:14.917Z,57.99
2018-05-21T03:50:42.443Z,58.01
2018-05-21T03:53:09.958Z,57.72
2018-05-21T03:55:37.442Z,57.92
2018-05-21T03:58:05.340Z,57.76
2018-05-21T04:00:44.757Z,57.79
2018-05-21T04:03:24.253Z,58.04
2018-05-21T04:05:51.746Z,57.86
2018-05-21T04:08:19.223Z,58.23
2018-05-21T04:10:46.746Z,58.15
2018-05-21T04:13:14.249Z,57.48
2018-05-21T04:15:41.781Z,58.09
2018-05-21T04:18:09.251Z,58.26
2018-05-21T04:20:36.750Z,58.17
2018-05-21T04:23:04.275Z,58.82
2018-05-21T04:25:32.225Z,58.84
2018-05-21T04:27:59.699Z,58.40
2018-05-21T04:30:27.201Z,58.98
2018-05-21T04:32:54.684Z,58.95
2018-05-21T04:35:22.783Z,58.92
2018-05-21T04:37:50.273Z,59.26
2018-05-21T04:40:17.747Z,59.56
2018-05-21T04:42:45.240Z,59.77
2018-05-21T04:45:12.725Z,59.92
2018-05-21T04:47:40.237Z,60.06
2018-05-21T04:50:08.344Z,59.52
2018-05-21T04:52:35.902Z,59.69
2018-05-21T04:55:03.444Z,60.53
2018-05-21T04:57:30.932Z,59.56
2018-05-21T04:59:58.446Z,60.17
2018-05-21T05:02:25.939Z,59.52
2018-05-21T05:04:53.440Z,59.58
2018-05-21T05:07:20.947Z,59.73
2018-05-21T05:09:48.492Z,59.59
2018-05-21T05:12:15.969Z,59.79
2018-05-21T05:14:43.481Z,59.13
2018-05-21T05:17:11.003Z,59.28
2018-05-21T05:19:38.475Z,59.20
2018-05-21T05:22:05.987Z,59.82
2018-05-21T05:24:33.503Z,59.29
2018-05-21T05:27:00.977Z,58.90
2018-05-21T05:29:28.498Z,58.63
2018-05-21T05:31:55.964Z,60.10
2018-05-21T05:34:23.482Z,59.08
2018-05-21T05:36:50.976Z,58.98
2018-05-21T05:39:18.504Z,58.54
2018-05-21T05:41:45.987Z,58.55
2018-05-21T05:44:13.480Z,58.63
2018-05-21T05:46:41.049Z,58.97
2018-05-21T05:49:08.543Z,58.32
2018-05-21T05:51:36.044Z,58.13
2018-05-21T05:54:03.553Z,57.94
2018-05-21T05:56:31.054Z,56.70
2018-05-21T05:58:58.622Z,55.70
2018-05-21T06:01:26.172Z,55.39
2018-05-21T06:03:53.673Z,56.04
2018-05-21T06:06:21.192Z,55.54
2018-05-21T06:08:48.679Z,54.75
2018-05-21T06:11:16.191Z,55.00
2018-05-21T06:13:43.717Z,55.04
2018-05-21T06:16:11.225Z,54.83
2018-05-21T06:18:38.721Z,54.82
2018-05-21T06:21:06.205Z,54.50
2018-05-21T06:23:33.774Z,54.66
2018-05-21T06:26:01.314Z,54.11
2018-05-21T06:28:28.775Z,54.32
2018-05-21T06:30:56.293Z,55.11
2018-05-21T06:33:23.786Z,54.92
2018-05-21T06:35:51.382Z,55.04
2018-05-21T06:38:18.865Z,53.95
2018-05-21T06:40:46.373Z,54.16
2018-05-21T06:43:13.850Z,54.69
2018-05-21T06:45:41.316Z,54.71
2018-05-21T06:48:08.871Z,54.67
2018-05-21T06:50:36.374Z,54.39
2018-05-21T06:53:03.868Z,54.51
2018-05-21T06:55:31.356Z,55.04
2018-05-21T06:57:58.932Z,53.76
2018-05-21T07:00:26.458Z,54.13
2018-05-21T07:02:53.983Z,53.59
2018-05-21T07:05:21.458Z,53.05
2018-05-21T07:07:48.951Z,53.12
2018-05-21T07:10:16.548Z,53.59
2018-05-21T07:12:44.676Z,52.84
2018-05-21T07:15:12.195Z,53.07
2018-05-21T07:20:13.528Z,50.38
2018-05-21T07:22:41.020Z,50.61
2018-05-21T07:25:08.693Z,51.08
2018-05-21T07:27:36.185Z,50.87
2018-05-21T07:30:03.710Z,51.55
2018-05-21T07:32:31.260Z,49.49
2018-05-21T07:34:58.746Z,51.12
2018-05-21T07:37:26.260Z,49.93
2018-05-21T07:39:53.730Z,48.78
2018-05-21T07:42:22.047Z,48.91
2018-05-21T07:44:49.566Z,49.35
2018-05-21T07:47:17.093Z,50.16
2018-05-21T07:49:44.595Z,49.46
2018-05-21T07:52:12.096Z,49.32
2018-05-21T07:54:39.594Z,48.15
2018-05-21T07:57:07.092Z,49.28
2018-05-21T07:59:34.629Z,49.05
2018-05-21T08:02:02.522Z,48.97
2018-05-21T08:04:30.054Z,49.29
2018-05-21T08:06:57.566Z,49.13
2018-05-21T08:09:25.131Z,49.62
2018-05-21T08:11:52.644Z,49.68
2018-05-21T08:14:20.181Z,49.42
2018-05-21T08:16:47.738Z,48.12
2018-05-21T08:19:15.277Z,49.09
2018-05-21T08:21:42.773Z,48.13
2018-05-21T08:24:10.373Z,48.13
2018-05-21T08:26:37.952Z,48.23
2018-05-21T08:29:05.443Z,46.27
2018-05-21T08:31:33.110Z,47.04
2018-05-21T08:34:00.619Z,44.55
2018-05-21T08:36:28.144Z,45.10
2018-05-21T08:38:55.644Z,45.60
2018-05-21T08:41:23.220Z,44.56
2018-05-21T08:43:50.751Z,44.37
2018-05-21T08:46:18.292Z,45.56
2018-05-21T08:48:45.924Z,45.04
2018-05-21T08:51:13.444Z,44.89
2018-05-21T08:53:40.984Z,44.30
2018-05-21T08:56:08.587Z,45.59
2018-05-21T08:58:36.081Z,44.65
2018-05-21T09:01:03.609Z,43.17
2018-05-21T09:03:31.105Z,43.58
2018-05-21T09:05:58.647Z,43.56
2018-05-21T09:08:26.209Z,43.33
2018-05-21T09:10:53.698Z,41.27
2018-05-21T09:13:21.772Z,42.94
2018-05-21T09:15:49.303Z,43.06
2018-05-21T09:18:16.899Z,42.89
2018-05-21T09:20:44.416Z,42.92
2018-05-21T09:23:11.932Z,42.18
2018-05-21T09:25:39.501Z,42.23
2018-05-21T09:28:07.014Z,42.84
2018-05-21T09:30:34.574Z,43.26
2018-05-21T09:33:02.198Z,42.63
2018-05-21T09:35:29.799Z,42.64
2018-05-21T09:37:57.401Z,40.27
2018-05-21T09:40:24.958Z,41.47
2018-05-21T09:42:52.495Z,41.84
2018-05-21T09:45:21.116Z,42.79
2018-05-21T09:47:48.813Z,42.20
2018-05-21T09:50:16.401Z,41.49
2018-05-21T09:52:43.941Z,40.41
2018-05-21T09:55:11.458Z,39.93
2018-05-21T09:57:38.953Z,37.28
2018-05-21T10:00:06.589Z,37.77
2018-05-21T10:02:34.085Z,36.06
2018-05-21T10:05:01.627Z,37.99
2018-05-21T10:07:29.228Z,38.57
2018-05-21T10:09:56.720Z,37.83
2018-05-21T10:12:24.963Z,37.31
2018-05-21T10:14:52.478Z,37.59
2018-05-21T10:17:20.159Z,36.56
2018-05-21T10:19:47.703Z,38.04
2018-05-21T10:22:15.243Z,35.89
2018-05-21T10:24:42.751Z,38.13
2018-05-21T10:27:10.499Z,36.06
2018-05-21T10:29:38.094Z,35.56
2018-05-21T10:32:05.625Z,36.56
2018-05-21T10:34:33.165Z,36.36
2018-05-21T10:37:00.758Z,36.75
2018-05-21T10:39:28.189Z,36.21
2018-05-21T10:41:55.691Z,36.87
2018-05-21T10:44:23.265Z,36.07
2018-05-21T10:46:50.774Z,35.44
2018-05-21T10:49:18.347Z,34.84
2018-05-21T10:51:45.839Z,36.40
2018-05-21T10:54:13.362Z,36.74
2018-05-21T10:56:40.850Z,37.36
2018-05-21T10:59:08.330Z,37.76
2018-05-21T11:01:35.915Z,36.63
2018-05-21T11:04:03.413Z,37.06
2018-05-21T11:06:30.962Z,34.86
2018-05-21T11:08:58.613Z,35.11
2018-05-21T11:11:26.179Z,34.61
2018-05-21T11:14:00.528Z,36.21
2018-05-21T11:16:28.223Z,36.23
2018-05-21T11:18:55.867Z,36.81
2018-05-21T11:21:23.432Z,35.62
2018-05-21T11:23:51.827Z,35.45
2018-05-21T11:26:19.395Z,35.83
2018-05-21T11:28:46.918Z,34.74
2018-05-21T11:31:14.410Z,35.17
2018-05-21T11:33:42.102Z,36.89
2018-05-21T11:36:09.596Z,37.13
2018-05-21T11:38:37.199Z,37.19
2018-05-21T11:41:04.744Z,37.35
2018-05-21T11:43:32.312Z,35.27
2018-05-21T11:45:59.821Z,35.83
2018-05-21T11:48:27.305Z,36.28
2018-05-21T11:50:54.811Z,35.47
2018-05-21T11:53:22.305Z,36.01
2018-05-21T11:55:50.107Z,34.89
2018-05-21T12:00:55.202Z,35.19
2018-05-21T12:03:22.824Z,35.25
2018-05-21T12:05:54.604Z,34.44
2018-05-21T12:08:22.092Z,34.50
2018-05-21T12:13:42.378Z,33.63
2018-05-21T12:16:09.891Z,34.41
2018-05-21T12:18:39.019Z,33.47
2018-05-21T12:21:06.530Z,34.78
2018-05-21T12:23:34.079Z,34.58
2018-05-21T12:26:01.572Z,34.67
2018-05-21T12:28:29.129Z,35.16
2018-05-21T12:30:56.724Z,32.76
2018-05-21T12:33:24.326Z,32.09
2018-05-21T12:35:51.853Z,31.50
2018-05-21T12:38:19.393Z,33.31
2018-05-21T12:40:46.909Z,33.71
2018-05-21T12:43:14.623Z,33.04
2018-05-21T12:45:42.264Z,33.29
2018-05-21T12:48:09.942Z,33.73
2018-05-21T12:50:37.460Z,34.72
2018-05-21T12:53:04.956Z,32.56
2018-05-21T12:55:32.462Z,32.72
2018-05-21T12:58:00.022Z,33.58
2018-05-21T13:00:27.532Z,33.34
2018-05-21T13:02:55.001Z,32.54
2018-05-21T13:05:22.481Z,32.04
2018-05-21T13:07:50.127Z,31.46
2018-05-21T13:10:17.612Z,31.26
2018-05-21T13:12:48.372Z,31.40
2018-05-21T13:15:15.899Z,32.41
2018-05-21T13:17:43.503Z,32.80
2018-05-21T13:20:12.479Z,33.06
2018-05-21T13:23:14.115Z,33.29
2018-05-21T13:25:41.716Z,31.70
2018-05-21T13:28:09.273Z,31.18
2018-05-21T13:30:40.620Z,31.48
2018-05-21T13:33:08.086Z,31.77
2018-05-21T13:35:35.882Z,31.41
2018-05-21T13:38:03.397Z,31.45
2018-05-21T13:40:30.940Z,32.24
2018-05-21T13:42:58.485Z,32.41
2018-05-21T13:45:26.014Z,31.38
2018-05-21T13:47:53.526Z,30.49
2018-05-21T13:50:21.001Z,31.76
2018-05-21T13:52:48.559Z,30.42
2018-05-21T13:55:16.154Z,29.60
2018-05-21T13:57:43.655Z,31.10
2018-05-21T14:00:11.152Z,31.00
2018-05-21T14:02:38.704Z,30.74
2018-05-21T14:05:06.209Z,30.49
2018-05-21T14:07:33.723Z,30.54
2018-05-21T14:10:01.202Z,30.34
2018-05-21T14:12:28.813Z,30.22
2018-05-21T14:14:56.300Z,30.93
2018-05-21T14:17:23.787Z,30.19
2018-05-21T14:19:51.357Z,30.36
2018-05-21T14:22:18.861Z,31.48
2018-05-21T14:24:46.392Z,29.80
2018-05-21T14:27:13.891Z,30.42
2018-05-21T14:29:41.827Z,29.81
2018-05-21T14:32:09.310Z,31.23
2018-05-21T14:34:36.898Z,29.23
2018-05-21T14:37:04.547Z,30.18
2018-05-21T14:39:32.042Z,29.53
2018-05-21T14:42:00.449Z,28.58
2018-05-21T14:44:27.915Z,28.49
2018-05-21T14:49:55.375Z,29.26
2018-05-21T14:52:22.915Z,28.58
2018-05-21T14:54:51.147Z,27.72
2018-05-21T14:57:18.577Z,27.83
2018-05-21T14:59:46.855Z,28.88
2018-05-21T15:02:17.056Z,28.35
2018-05-21T15:04:44.648Z,28.20
2018-05-21T15:07:12.134Z,26.98
2018-05-21T15:09:40.235Z,28.23
2018-05-21T15:15:00.068Z,26.61
2018-05-21T15:17:27.556Z,28.72
2018-05-21T15:19:55.082Z,27.37
2018-05-21T15:22:22.632Z,28.11
2018-05-21T15:24:50.104Z,27.89
2018-05-21T15:27:17.636Z,27.80
2018-05-21T15:29:47.084Z,28.09
2018-05-21T15:32:17.382Z,27.81
2018-05-21T15:34:44.899Z,28.93
2018-05-21T15:37:12.414Z,28.25
2018-05-21T15:39:39.903Z,29.32
2018-05-21T15:42:07.457Z,28.12
2018-05-21T15:44:34.928Z,27.86
2018-05-21T15:47:02.732Z,27.51
2018-05-21T15:49:30.201Z,27.41
2018-05-21T15:51:57.741Z,27.61
2018-05-21T15:54:25.253Z,27.34
2018-05-21T15:56:52.779Z,27.99
2018-05-21T15:59:20.255Z,29.20
2018-05-21T16:01:47.738Z,28.12
2018-05-21T16:04:15.306Z,27.92
2018-05-21T16:06:42.786Z,29.24
2018-05-21T16:09:10.316Z,28.61
2018-05-21T16:11:37.834Z,27.82
2018-05-21T16:14:05.371Z,27.93
2018-05-21T16:16:32.845Z,27.14
2018-05-21T16:19:00.354Z,27.24
2018-05-21T16:21:27.860Z,28.08
2018-05-21T16:23:55.464Z,27.76
2018-05-21T16:26:22.964Z,27.21
2018-05-21T16:28:50.449Z,27.33
2018-05-21T16:31:18.074Z,27.39
2018-05-21T16:33:45.614Z,27.86
2018-05-21T16:36:13.123Z,28.07
2018-05-21T16:38:40.706Z,28.51
2018-05-21T16:41:08.195Z,27.74
2018-05-21T16:43:35.720Z,28.43
2018-05-21T16:46:03.206Z,27.67
2018-05-21T16:48:30.753Z,28.56
2018-05-21T16:50:58.260Z,28.66
2018-05-21T16:53:25.771Z,29.23
2018-05-21T16:55:53.261Z,28.80
2018-05-21T16:58:20.769Z,29.00
2018-05-21T17:00:48.261Z,27.51
2018-05-21T17:03:15.787Z,27.47
2018-05-21T17:05:43.311Z,28.01
2018-05-21T17:08:10.789Z,28.54
2018-05-21T17:10:38.287Z,28.01
2018-05-21T17:13:05.810Z,29.17
2018-05-21T17:16:12.224Z,29.15
2018-05-21T17:18:39.707Z,29.47
2018-05-21T17:21:07.219Z,29.01
2018-05-21T17:23:34.704Z,29.85
2018-05-21T17:26:02.220Z,29.04
2018-05-21T17:28:29.717Z,28.99
2018-05-21T17:30:57.226Z,29.12
2018-05-21T17:33:24.733Z,28.94
2018-05-21T17:35:52.249Z,29.31
2018-05-21T17:38:19.724Z,29.01
2018-05-21T17:40:47.237Z,29.07
2018-05-21T17:43:14.715Z,28.11
2018-05-21T17:45:42.201Z,28.49
2018-05-21T17:48:09.732Z,28.99
2018-05-21T17:50:37.230Z,29.50
2018-05-21T17:53:04.749Z,28.83
2018-05-21T17:55:32.220Z,28.63
2018-05-21T17:57:59.738Z,29.18
2018-05-21T18:00:27.304Z,29.64
2018-05-21T18:02:54.814Z,29.41
2018-05-21T18:05:22.308Z,29.93
2018-05-21T18:07:49.803Z,30.19
2018-05-21T18:10:17.374Z,29.77
2018-05-21T18:12:44.874Z,29.67
2018-05-21T18:15:12.386Z,29.93
2018-05-21T18:17:39.876Z,30.40
2018-05-21T18:20:07.400Z,30.48
2018-05-21T18:22:34.897Z,30.87
2018-05-21T18:25:02.505Z,30.71
2018-05-21T18:27:30.006Z,30.83
2018-05-21T18:29:57.512Z,31.07
2018-05-21T18:32:24.989Z,30.98
2018-05-21T18:34:52.517Z,31.14
2018-05-21T18:37:20.000Z,31.64
2018-05-21T18:39:47.536Z,31.35
2018-05-21T18:42:15.082Z,31.51
2018-05-21T18:44:42.588Z,31.24
2018-05-21T18:47:10.136Z,32.03
2018-05-21T18:49:37.713Z,32.01
2018-05-21T18:52:06.397Z,32.95
2018-05-21T18:54:46.920Z,33.02
2018-05-21T18:57:14.416Z,32.92
2018-05-21T18:59:46.740Z,33.24
2018-05-21T19:02:21.721Z,33.37
2018-05-21T19:04:49.252Z,32.96
2018-05-21T19:07:17.523Z,33.35
2018-05-21T19:09:45.033Z,33.69
2018-05-21T19:12:12.609Z,33.87
2018-05-21T19:14:40.089Z,35.08
2018-05-21T19:17:07.611Z,34.38
2018-05-21T19:19:35.120Z,33.77
2018-05-21T19:22:02.702Z,33.69
2018-05-21T19:24:30.199Z,34.21
2018-05-21T19:26:57.690Z,34.46
2018-05-21T19:29:25.903Z,34.60
2018-05-21T19:31:53.417Z,34.44
2018-05-21T19:34:20.937Z,34.20
2018-05-21T19:36:48.424Z,34.12
2018-05-21T19:39:15.914Z,35.01
2018-05-21T19:41:43.428Z,35.01
2018-05-21T19:44:10.935Z,35.50
2018-05-21T19:46:38.522Z,35.02
2018-05-21T19:49:05.983Z,34.93
2018-05-21T19:51:33.483Z,35.32
2018-05-21T19:54:00.972Z,35.31
2018-05-21T19:56:28.484Z,35.81
2018-05-21T19:58:56.080Z,36.34
2018-05-21T20:01:23.580Z,35.96
2018-05-21T20:03:51.073Z,36.27
2018-05-21T20:06:18.673Z,36.08
2018-05-21T20:08:46.232Z,36.51
2018-05-21T20:11:13.790Z,36.80
2018-05-21T20:13:41.338Z,36.08
2018-05-21T20:16:08.773Z,37.11
2018-05-21T20:18:36.304Z,36.60
2018-05-21T20:21:03.993Z,36.65
2018-05-21T20:23:31.543Z,37.20
2018-05-21T20:25:59.041Z,36.88
2018-05-21T20:28:26.572Z,37.29
2018-05-21T20:30:54.116Z,37.59
2018-05-21T20:33:21.628Z,37.39
2018-05-21T20:35:49.186Z,36.85
2018-05-21T20:38:16.789Z,36.74
2018-05-21T20:40:44.291Z,36.77
2018-05-21T20:43:11.807Z,37.69
2018-05-21T20:45:39.300Z,38.48
2018-05-21T20:48:06.843Z,38.75
2018-05-21T20:50:34.367Z,39.87
2018-05-21T20:53:02.511Z,40.95
2018-05-21T20:55:30.019Z,40.92
2018-05-21T20:57:57.532Z,41.25
2018-05-21T21:00:25.028Z,41.62
2018-05-21T21:02:52.511Z,41.56
2018-05-21T21:05:20.159Z,40.78
2018-05-21T21:07:47.655Z,41.85
2018-05-21T21:10:15.188Z,42.10
2018-05-21T21:12:42.692Z,42.93
2018-05-21T21:15:10.265Z,42.89
2018-05-21T21:17:37.807Z,42.46
2018-05-21T21:20:05.286Z,43.31
2018-05-21T21:22:32.905Z,43.63
2018-05-21T21:25:00.456Z,44.09
2018-05-21T21:27:27.997Z,43.55
2018-05-21T21:29:55.599Z,44.28
2018-05-21T21:32:23.176Z,44.58
2018-05-21T21:34:50.680Z,44.74
2018-05-21T21:37:18.201Z,44.87
2018-05-21T21:39:45.678Z,45.05
2018-05-21T21:42:13.196Z,45.17
2018-05-21T21:44:40.763Z,45.12
2018-05-21T21:47:08.186Z,46.15
2018-05-21T21:49:35.684Z,46.11
2018-05-21T21:52:03.157Z,45.71
2018-05-21T21:54:30.669Z,45.69
2018-05-21T21:56:58.154Z,46.08
2018-05-21T21:59:26.238Z,46.24
2018-05-21T22:01:53.738Z,46.28
2018-05-21T22:04:21.245Z,46.65
2018-05-21T22:06:48.739Z,46.95
2018-05-21T22:09:16.266Z,46.86
2018-05-21T22:11:43.762Z,46.74
2018-05-21T22:14:11.355Z,46.86
2018-05-21T22:16:38.848Z,47.30
2018-05-21T22:19:06.341Z,47.02
2018-05-21T22:21:33.852Z,47.47
2018-05-21T22:24:01.446Z,47.04
2018-05-21T22:26:28.947Z,47.20
2018-05-21T22:28:56.476Z,47.21
2018-05-21T22:31:24.037Z,47.56
2018-05-21T22:33:51.514Z,47.25
2018-05-21T22:36:19.056Z,47.83
2018-05-21T22:38:46.645Z,48.23
2018-05-21T22:41:14.117Z,47.78
2018-05-21T22:43:41.691Z,47.97
2018-05-21T22:46:09.178Z,48.58
2018-05-21T22:48:36.771Z,47.89
2018-05-21T22:51:04.255Z,48.42
2018-05-21T22:53:31.788Z,48.33
2018-05-21T22:55:59.268Z,47.95
2018-05-21T22:58:26.788Z,47.93
2018-05-21T23:00:54.281Z,48.13
2018-05-21T23:03:21.770Z,48.21
2018-05-21T23:05:49.292Z,48.61
2018-05-21T23:08:16.806Z,48.81
2018-05-21T23:10:44.349Z,48.99
2018-05-21T23:13:11.862Z,49.01
2018-05-21T23:15:39.333Z,49.10
2018-05-21T23:18:06.853Z,49.17
2018-05-21T23:20:34.343Z,49.03
2018-05-21T23:23:01.864Z,48.77
2018-05-21T23:25:29.357Z,48.53
2018-05-21T23:27:56.896Z,49.51
2018-05-21T23:30:24.544Z,49.63
2018-05-21T23:32:52.032Z,49.34
2018-05-21T23:35:19.598Z,49.14
2018-05-21T23:37:47.091Z,49.84
2018-05-21T23:40:14.654Z,49.17
2018-05-21T23:42:42.138Z,49.55
2018-05-21T23:45:09.617Z,49.13
2018-05-21T23:47:37.111Z,49.05
2018-05-21T23:50:04.582Z,49.31
2018-05-21T23:52:32.079Z,49.61
2018-05-21T23:54:59.548Z,49.25
2018-05-21T23:57:27.050Z,49.91
2018-05-21T23:59:54.620Z,50.43
